sensor_id;sensor_type;location;lat;lon;timestamp;temperature;humidity
17774;DHT22;9011;33.236;-97.118;2023-08-06T00:01:52;41.60;68.70
17774;DHT22;9011;33.236;-97.118;2023-08-06T00:04:20;41.50;69.80
17774;DHT22;9011;33.236;-97.118;2023-08-06T00:06:50;41.30;69.80
17774;DHT22;9011;33.236;-97.118;2023-08-06T00:09:19;41.00;70.10
17774;DHT22;9011;33.236;-97.118;2023-08-06T00:11:47;41.10;70.30
17774;DHT22;9011;33.236;-97.118;2023-08-06T00:14:15;41.10;70.30
17774;DHT22;9011;33.236;-97.118;2023-08-06T00:16:44;41.00;70.90
17774;DHT22;9011;33.236;-97.118;2023-08-06T00:19:12;40.80;70.40
17774;DHT22;9011;33.236;-97.118;2023-08-06T00:21:41;40.60;71.10
17774;DHT22;9011;33.236;-97.118;2023-08-06T00:24:11;40.30;71.30
17774;DHT22;9011;33.236;-97.118;2023-08-06T00:26:39;40.10;72.10
17774;DHT22;9011;33.236;-97.118;2023-08-06T00:29:07;39.80;71.80
17774;DHT22;9011;33.236;-97.118;2023-08-06T00:31:36;39.80;71.70
17774;DHT22;9011;33.236;-97.118;2023-08-06T00:34:04;39.50;72.50
17774;DHT22;9011;33.236;-97.118;2023-08-06T00:36:32;39.40;72.50
17774;DHT22;9011;33.236;-97.118;2023-08-06T00:39:01;39.50;72.90
17774;DHT22;9011;33.236;-97.118;2023-08-06T00:41:31;39.30;73.30
17774;DHT22;9011;33.236;-97.118;2023-08-06T00:43:59;38.90;73.80
17774;DHT22;9011;33.236;-97.118;2023-08-06T00:46:28;38.60;74.50
17774;DHT22;9011;33.236;-97.118;2023-08-06T00:48:56;38.60;74.80
17774;DHT22;9011;33.236;-97.118;2023-08-06T00:51:25;38.70;74.30
17774;DHT22;9011;33.236;-97.118;2023-08-06T00:53:53;38.60;74.90
17774;DHT22;9011;33.236;-97.118;2023-08-06T00:56:23;38.50;74.40
17774;DHT22;9011;33.236;-97.118;2023-08-06T00:58:54;38.40;74.30
17774;DHT22;9011;33.236;-97.118;2023-08-06T01:01:23;38.40;74.80
17774;DHT22;9011;33.236;-97.118;2023-08-06T01:03:51;38.40;75.20
17774;DHT22;9011;33.236;-97.118;2023-08-06T01:06:28;38.20;75.50
17774;DHT22;9011;33.236;-97.118;2023-08-06T01:09:05;38.00;76.30
17774;DHT22;9011;33.236;-97.118;2023-08-06T01:11:44;38.00;75.50
17774;DHT22;9011;33.236;-97.118;2023-08-06T01:14:26;37.90;75.90
17774;DHT22;9011;33.236;-97.118;2023-08-06T01:16:55;37.90;76.40
17774;DHT22;9011;33.236;-97.118;2023-08-06T01:19:26;37.80;76.80
17774;DHT22;9011;33.236;-97.118;2023-08-06T01:21:56;37.80;77.80
17774;DHT22;9011;33.236;-97.118;2023-08-06T01:24:24;37.80;77.00
17774;DHT22;9011;33.236;-97.118;2023-08-06T01:26:57;37.70;78.30
17774;DHT22;9011;33.236;-97.118;2023-08-06T01:29:31;37.50;77.80
17774;DHT22;9011;33.236;-97.118;2023-08-06T01:32:02;37.30;78.40
17774;DHT22;9011;33.236;-97.118;2023-08-06T01:34:33;37.30;78.50
17774;DHT22;9011;33.236;-97.118;2023-08-06T01:37:04;37.30;78.60
17774;DHT22;9011;33.236;-97.118;2023-08-06T01:39:34;37.20;78.50
17774;DHT22;9011;33.236;-97.118;2023-08-06T01:42:02;37.10;79.40
17774;DHT22;9011;33.236;-97.118;2023-08-06T01:44:31;37.10;79.40
17774;DHT22;9011;33.236;-97.118;2023-08-06T01:46:59;36.80;79.30
17774;DHT22;9011;33.236;-97.118;2023-08-06T01:49:27;36.80;79.90
17774;DHT22;9011;33.236;-97.118;2023-08-06T01:51:56;36.50;80.80
17774;DHT22;9011;33.236;-97.118;2023-08-06T01:54:26;36.50;80.70
17774;DHT22;9011;33.236;-97.118;2023-08-06T01:56:55;36.30;81.30
17774;DHT22;9011;33.236;-97.118;2023-08-06T01:59:24;36.30;81.30
17774;DHT22;9011;33.236;-97.118;2023-08-06T02:01:53;36.20;81.80
17774;DHT22;9011;33.236;-97.118;2023-08-06T02:04:21;36.10;82.10
17774;DHT22;9011;33.236;-97.118;2023-08-06T02:06:49;36.00;82.80
17774;DHT22;9011;33.236;-97.118;2023-08-06T02:09:18;36.00;84.10
17774;DHT22;9011;33.236;-97.118;2023-08-06T02:11:48;35.90;85.70
17774;DHT22;9011;33.236;-97.118;2023-08-06T02:14:17;35.90;85.70
17774;DHT22;9011;33.236;-97.118;2023-08-06T02:16:45;36.00;86.50
17774;DHT22;9011;33.236;-97.118;2023-08-06T02:19:14;35.90;87.20
17774;DHT22;9011;33.236;-97.118;2023-08-06T02:21:42;35.80;88.50
17774;DHT22;9011;33.236;-97.118;2023-08-06T02:24:11;35.70;90.00
17774;DHT22;9011;33.236;-97.118;2023-08-06T02:26:39;35.70;90.70
17774;DHT22;9011;33.236;-97.118;2023-08-06T02:29:09;35.70;91.30
17774;DHT22;9011;33.236;-97.118;2023-08-06T02:31:38;35.60;91.90
17774;DHT22;9011;33.236;-97.118;2023-08-06T02:34:06;35.60;92.10
17774;DHT22;9011;33.236;-97.118;2023-08-06T02:36:34;35.60;92.30
17774;DHT22;9011;33.236;-97.118;2023-08-06T02:39:03;35.50;92.50
17774;DHT22;9011;33.236;-97.118;2023-08-06T02:41:33;35.40;92.50
17774;DHT22;9011;33.236;-97.118;2023-08-06T02:44:01;35.50;92.50
17774;DHT22;9011;33.236;-97.118;2023-08-06T02:46:31;35.40;92.70
17774;DHT22;9011;33.236;-97.118;2023-08-06T02:49:00;35.40;92.60
17774;DHT22;9011;33.236;-97.118;2023-08-06T02:51:28;35.30;92.90
17774;DHT22;9011;33.236;-97.118;2023-08-06T02:53:56;35.20;92.90
17774;DHT22;9011;33.236;-97.118;2023-08-06T02:56:25;35.20;92.70
17774;DHT22;9011;33.236;-97.118;2023-08-06T02:58:53;35.10;92.70
17774;DHT22;9011;33.236;-97.118;2023-08-06T03:01:21;35.00;92.90
17774;DHT22;9011;33.236;-97.118;2023-08-06T03:03:54;35.00;93.00
17774;DHT22;9011;33.236;-97.118;2023-08-06T03:06:22;34.90;92.90
17774;DHT22;9011;33.236;-97.118;2023-08-06T03:08:51;34.90;93.00
17774;DHT22;9011;33.236;-97.118;2023-08-06T03:11:19;34.80;93.20
17774;DHT22;9011;33.236;-97.118;2023-08-06T03:13:48;34.70;93.40
17774;DHT22;9011;33.236;-97.118;2023-08-06T03:16:16;34.80;93.40
17774;DHT22;9011;33.236;-97.118;2023-08-06T03:18:44;34.70;93.50
17774;DHT22;9011;33.236;-97.118;2023-08-06T03:21:14;34.70;93.60
17774;DHT22;9011;33.236;-97.118;2023-08-06T03:23:43;34.50;93.70
17774;DHT22;9011;33.236;-97.118;2023-08-06T03:26:11;34.50;93.90
17774;DHT22;9011;33.236;-97.118;2023-08-06T03:28:39;34.40;92.50
17774;DHT22;9011;33.236;-97.118;2023-08-06T03:31:08;34.30;91.30
17774;DHT22;9011;33.236;-97.118;2023-08-06T03:33:36;34.40;88.70
17774;DHT22;9011;33.236;-97.118;2023-08-06T03:36:04;34.30;88.50
17774;DHT22;9011;33.236;-97.118;2023-08-06T03:38:36;34.40;85.90
17774;DHT22;9011;33.236;-97.118;2023-08-06T03:41:04;34.40;87.20
17774;DHT22;9011;33.236;-97.118;2023-08-06T03:43:32;34.50;85.40
17774;DHT22;9011;33.236;-97.118;2023-08-06T03:46:01;34.50;84.10
17774;DHT22;9011;33.236;-97.118;2023-08-06T03:48:29;34.60;83.50
17774;DHT22;9011;33.236;-97.118;2023-08-06T03:50:57;34.60;83.50
17774;DHT22;9011;33.236;-97.118;2023-08-06T03:53:28;34.70;82.70
17774;DHT22;9011;33.236;-97.118;2023-08-06T03:55:58;34.70;83.30
17774;DHT22;9011;33.236;-97.118;2023-08-06T03:58:26;34.70;83.00
17774;DHT22;9011;33.236;-97.118;2023-08-06T04:01:04;34.70;82.90
17774;DHT22;9011;33.236;-97.118;2023-08-06T04:03:33;34.70;83.10
17774;DHT22;9011;33.236;-97.118;2023-08-06T04:06:03;34.60;83.00
17774;DHT22;9011;33.236;-97.118;2023-08-06T04:08:31;34.70;82.40
17774;DHT22;9011;33.236;-97.118;2023-08-06T04:11:03;34.70;82.30
17774;DHT22;9011;33.236;-97.118;2023-08-06T04:13:33;34.80;82.20
17774;DHT22;9011;33.236;-97.118;2023-08-06T04:16:02;34.80;82.40
17774;DHT22;9011;33.236;-97.118;2023-08-06T04:18:31;34.80;82.00
17774;DHT22;9011;33.236;-97.118;2023-08-06T04:21:01;34.70;82.40
17774;DHT22;9011;33.236;-97.118;2023-08-06T04:23:29;34.60;82.40
17774;DHT22;9011;33.236;-97.118;2023-08-06T04:25:58;34.70;82.30
17774;DHT22;9011;33.236;-97.118;2023-08-06T04:28:28;34.70;82.30
17774;DHT22;9011;33.236;-97.118;2023-08-06T04:30:56;34.70;82.40
17774;DHT22;9011;33.236;-97.118;2023-08-06T04:33:26;34.60;82.80
17774;DHT22;9011;33.236;-97.118;2023-08-06T04:35:57;34.50;83.30
17774;DHT22;9011;33.236;-97.118;2023-08-06T04:38:28;34.50;83.00
17774;DHT22;9011;33.236;-97.118;2023-08-06T04:40:56;34.50;82.90
17774;DHT22;9011;33.236;-97.118;2023-08-06T04:43:25;34.50;83.20
17774;DHT22;9011;33.236;-97.118;2023-08-06T04:45:55;34.50;83.00
17774;DHT22;9011;33.236;-97.118;2023-08-06T04:48:24;34.40;83.40
17774;DHT22;9011;33.236;-97.118;2023-08-06T04:50:52;34.40;83.00
17774;DHT22;9011;33.236;-97.118;2023-08-06T04:53:21;34.40;83.00
17774;DHT22;9011;33.236;-97.118;2023-08-06T04:55:49;34.40;82.80
17774;DHT22;9011;33.236;-97.118;2023-08-06T04:58:17;34.40;82.50
17774;DHT22;9011;33.236;-97.118;2023-08-06T05:00:47;34.40;82.50
17774;DHT22;9011;33.236;-97.118;2023-08-06T05:03:17;34.40;82.30
17774;DHT22;9011;33.236;-97.118;2023-08-06T05:05:49;34.40;82.50
17774;DHT22;9011;33.236;-97.118;2023-08-06T05:08:17;34.40;82.30
17774;DHT22;9011;33.236;-97.118;2023-08-06T05:10:45;34.40;82.20
17774;DHT22;9011;33.236;-97.118;2023-08-06T05:13:14;34.40;82.20
17774;DHT22;9011;33.236;-97.118;2023-08-06T05:15:42;34.40;82.30
17774;DHT22;9011;33.236;-97.118;2023-08-06T05:18:12;34.40;82.30
17774;DHT22;9011;33.236;-97.118;2023-08-06T05:20:43;34.30;82.40
17774;DHT22;9011;33.236;-97.118;2023-08-06T05:23:11;34.30;82.40
17774;DHT22;9011;33.236;-97.118;2023-08-06T05:25:40;34.30;82.40
17774;DHT22;9011;33.236;-97.118;2023-08-06T05:28:09;34.30;82.30
17774;DHT22;9011;33.236;-97.118;2023-08-06T05:30:40;34.30;82.40
17774;DHT22;9011;33.236;-97.118;2023-08-06T05:33:11;34.20;82.50
17774;DHT22;9011;33.236;-97.118;2023-08-06T05:35:47;34.20;82.70
17774;DHT22;9011;33.236;-97.118;2023-08-06T05:38:17;34.10;82.70
17774;DHT22;9011;33.236;-97.118;2023-08-06T05:40:45;34.10;82.80
17774;DHT22;9011;33.236;-97.118;2023-08-06T05:43:14;34.10;82.90
17774;DHT22;9011;33.236;-97.118;2023-08-06T05:45:45;34.10;83.00
17774;DHT22;9011;33.236;-97.118;2023-08-06T05:48:13;34.00;83.50
17774;DHT22;9011;33.236;-97.118;2023-08-06T05:50:41;33.90;83.40
17774;DHT22;9011;33.236;-97.118;2023-08-06T05:53:11;33.80;84.00
17774;DHT22;9011;33.236;-97.118;2023-08-06T05:55:40;33.80;84.10
17774;DHT22;9011;33.236;-97.118;2023-08-06T05:58:08;33.70;84.00
17774;DHT22;9011;33.236;-97.118;2023-08-06T06:00:36;33.80;83.80
17774;DHT22;9011;33.236;-97.118;2023-08-06T06:03:05;33.80;84.10
17774;DHT22;9011;33.236;-97.118;2023-08-06T06:05:33;33.70;84.00
17774;DHT22;9011;33.236;-97.118;2023-08-06T06:08:01;33.60;84.70
17774;DHT22;9011;33.236;-97.118;2023-08-06T06:10:31;33.60;84.50
17774;DHT22;9011;33.236;-97.118;2023-08-06T06:13:00;33.50;84.50
17774;DHT22;9011;33.236;-97.118;2023-08-06T06:15:29;33.60;84.60
17774;DHT22;9011;33.236;-97.118;2023-08-06T06:17:57;33.50;84.70
17774;DHT22;9011;33.236;-97.118;2023-08-06T06:20:25;33.50;84.70
17774;DHT22;9011;33.236;-97.118;2023-08-06T06:22:54;33.50;84.70
17774;DHT22;9011;33.236;-97.118;2023-08-06T06:25:22;33.50;84.60
17774;DHT22;9011;33.236;-97.118;2023-08-06T06:27:52;33.50;85.00
17774;DHT22;9011;33.236;-97.118;2023-08-06T06:30:20;33.40;85.10
17774;DHT22;9011;33.236;-97.118;2023-08-06T06:32:49;33.30;85.10
17774;DHT22;9011;33.236;-97.118;2023-08-06T06:35:17;33.40;85.10
17774;DHT22;9011;33.236;-97.118;2023-08-06T06:37:45;33.30;85.10
17774;DHT22;9011;33.236;-97.118;2023-08-06T06:40:14;33.30;84.80
17774;DHT22;9011;33.236;-97.118;2023-08-06T06:42:42;33.30;85.30
17774;DHT22;9011;33.236;-97.118;2023-08-06T06:45:12;33.10;85.50
17774;DHT22;9011;33.236;-97.118;2023-08-06T06:47:40;33.10;85.30
17774;DHT22;9011;33.236;-97.118;2023-08-06T06:50:09;33.10;85.40
17774;DHT22;9011;33.236;-97.118;2023-08-06T06:52:37;33.00;85.20
17774;DHT22;9011;33.236;-97.118;2023-08-06T06:55:06;33.00;85.00
17774;DHT22;9011;33.236;-97.118;2023-08-06T06:57:35;33.00;85.00
17774;DHT22;9011;33.236;-97.118;2023-08-06T07:00:04;33.00;85.20
17774;DHT22;9011;33.236;-97.118;2023-08-06T07:02:34;32.90;85.30
17774;DHT22;9011;33.236;-97.118;2023-08-06T07:05:03;32.90;85.50
17774;DHT22;9011;33.236;-97.118;2023-08-06T07:07:32;32.80;85.70
17774;DHT22;9011;33.236;-97.118;2023-08-06T07:10:01;32.70;85.80
17774;DHT22;9011;33.236;-97.118;2023-08-06T07:12:30;32.60;86.50
17774;DHT22;9011;33.236;-97.118;2023-08-06T07:14:58;32.60;86.40
17774;DHT22;9011;33.236;-97.118;2023-08-06T07:17:26;32.60;86.30
17774;DHT22;9011;33.236;-97.118;2023-08-06T07:19:56;32.60;86.50
17774;DHT22;9011;33.236;-97.118;2023-08-06T07:22:24;32.50;86.40
17774;DHT22;9011;33.236;-97.118;2023-08-06T07:24:53;32.40;86.80
17774;DHT22;9011;33.236;-97.118;2023-08-06T07:27:21;32.40;86.60
17774;DHT22;9011;33.236;-97.118;2023-08-06T07:29:50;32.40;86.80
17774;DHT22;9011;33.236;-97.118;2023-08-06T07:32:18;32.40;86.60
17774;DHT22;9011;33.236;-97.118;2023-08-06T07:34:46;32.40;87.00
17774;DHT22;9011;33.236;-97.118;2023-08-06T07:37:17;32.30;86.90
17774;DHT22;9011;33.236;-97.118;2023-08-06T07:39:45;32.40;86.80
17774;DHT22;9011;33.236;-97.118;2023-08-06T07:42:13;32.40;87.00
17774;DHT22;9011;33.236;-97.118;2023-08-06T07:44:42;32.40;87.20
17774;DHT22;9011;33.236;-97.118;2023-08-06T07:47:10;32.30;87.10
17774;DHT22;9011;33.236;-97.118;2023-08-06T07:49:40;32.30;87.20
17774;DHT22;9011;33.236;-97.118;2023-08-06T07:52:08;32.10;87.30
17774;DHT22;9011;33.236;-97.118;2023-08-06T07:54:39;32.30;87.40
17774;DHT22;9011;33.236;-97.118;2023-08-06T07:57:07;32.30;87.40
17774;DHT22;9011;33.236;-97.118;2023-08-06T07:59:36;32.30;87.50
17774;DHT22;9011;33.236;-97.118;2023-08-06T08:02:05;32.20;87.60
17774;DHT22;9011;33.236;-97.118;2023-08-06T08:04:34;32.20;87.70
17774;DHT22;9011;33.236;-97.118;2023-08-06T08:07:03;32.20;87.90
17774;DHT22;9011;33.236;-97.118;2023-08-06T08:09:31;32.30;87.80
17774;DHT22;9011;33.236;-97.118;2023-08-06T08:12:01;32.20;87.90
17774;DHT22;9011;33.236;-97.118;2023-08-06T08:14:29;32.20;88.30
17774;DHT22;9011;33.236;-97.118;2023-08-06T08:17:01;32.20;88.30
17774;DHT22;9011;33.236;-97.118;2023-08-06T08:19:30;32.20;88.70
17774;DHT22;9011;33.236;-97.118;2023-08-06T08:21:58;32.30;88.90
17774;DHT22;9011;33.236;-97.118;2023-08-06T08:24:27;32.30;89.10
17774;DHT22;9011;33.236;-97.118;2023-08-06T08:26:57;32.30;89.20
17774;DHT22;9011;33.236;-97.118;2023-08-06T08:29:26;32.20;89.40
17774;DHT22;9011;33.236;-97.118;2023-08-06T08:31:55;32.10;89.70
17774;DHT22;9011;33.236;-97.118;2023-08-06T08:34:23;32.10;89.80
17774;DHT22;9011;33.236;-97.118;2023-08-06T08:36:52;32.10;90.30
17774;DHT22;9011;33.236;-97.118;2023-08-06T08:39:20;32.10;90.00
17774;DHT22;9011;33.236;-97.118;2023-08-06T08:41:48;32.10;90.00
17774;DHT22;9011;33.236;-97.118;2023-08-06T08:44:17;32.10;90.20
17774;DHT22;9011;33.236;-97.118;2023-08-06T08:46:48;32.00;90.20
17774;DHT22;9011;33.236;-97.118;2023-08-06T08:49:17;32.00;90.20
17774;DHT22;9011;33.236;-97.118;2023-08-06T08:51:46;32.00;90.40
17774;DHT22;9011;33.236;-97.118;2023-08-06T08:54:16;32.00;90.50
17774;DHT22;9011;33.236;-97.118;2023-08-06T08:56:45;31.90;90.90
17774;DHT22;9011;33.236;-97.118;2023-08-06T08:59:13;31.80;90.90
17774;DHT22;9011;33.236;-97.118;2023-08-06T09:01:42;31.80;90.80
17774;DHT22;9011;33.236;-97.118;2023-08-06T09:04:14;31.70;90.90
17774;DHT22;9011;33.236;-97.118;2023-08-06T09:06:43;31.70;90.80
17774;DHT22;9011;33.236;-97.118;2023-08-06T09:09:17;31.70;91.00
17774;DHT22;9011;33.236;-97.118;2023-08-06T09:11:49;31.70;90.80
17774;DHT22;9011;33.236;-97.118;2023-08-06T09:14:17;31.70;91.10
17774;DHT22;9011;33.236;-97.118;2023-08-06T09:16:47;31.60;91.80
17774;DHT22;9011;33.236;-97.118;2023-08-06T09:19:18;31.60;91.70
17774;DHT22;9011;33.236;-97.118;2023-08-06T09:21:46;31.50;91.60
17774;DHT22;9011;33.236;-97.118;2023-08-06T09:24:16;31.50;91.60
17774;DHT22;9011;33.236;-97.118;2023-08-06T09:26:45;31.50;91.80
17774;DHT22;9011;33.236;-97.118;2023-08-06T09:29:13;31.40;92.10
17774;DHT22;9011;33.236;-97.118;2023-08-06T09:31:42;31.20;92.40
17774;DHT22;9011;33.236;-97.118;2023-08-06T09:34:12;31.00;94.70
17774;DHT22;9011;33.236;-97.118;2023-08-06T09:36:43;31.00;95.00
17774;DHT22;9011;33.236;-97.118;2023-08-06T09:39:14;31.00;93.80
17774;DHT22;9011;33.236;-97.118;2023-08-06T09:41:43;30.90;93.60
17774;DHT22;9011;33.236;-97.118;2023-08-06T09:44:16;30.80;93.60
17774;DHT22;9011;33.236;-97.118;2023-08-06T09:46:49;30.70;93.50
17774;DHT22;9011;33.236;-97.118;2023-08-06T09:49:19;30.80;93.50
17774;DHT22;9011;33.236;-97.118;2023-08-06T09:51:50;30.80;93.40
17774;DHT22;9011;33.236;-97.118;2023-08-06T09:54:23;30.70;93.40
17774;DHT22;9011;33.236;-97.118;2023-08-06T09:56:53;30.60;93.60
17774;DHT22;9011;33.236;-97.118;2023-08-06T09:59:23;30.50;93.80
17774;DHT22;9011;33.236;-97.118;2023-08-06T10:01:51;30.50;93.70
17774;DHT22;9011;33.236;-97.118;2023-08-06T10:04:22;30.40;93.80
17774;DHT22;9011;33.236;-97.118;2023-08-06T10:06:53;30.40;93.80
17774;DHT22;9011;33.236;-97.118;2023-08-06T10:09:21;30.40;93.90
17774;DHT22;9011;33.236;-97.118;2023-08-06T10:11:51;30.40;94.10
17774;DHT22;9011;33.236;-97.118;2023-08-06T10:14:24;30.10;94.80
17774;DHT22;9011;33.236;-97.118;2023-08-06T10:16:55;30.20;94.90
17774;DHT22;9011;33.236;-97.118;2023-08-06T10:19:25;30.20;94.70
17774;DHT22;9011;33.236;-97.118;2023-08-06T10:22:12;30.20;94.40
17774;DHT22;9011;33.236;-97.118;2023-08-06T10:24:51;30.10;94.50
17774;DHT22;9011;33.236;-97.118;2023-08-06T10:27:28;30.10;94.80
17774;DHT22;9011;33.236;-97.118;2023-08-06T10:30:07;30.10;94.60
17774;DHT22;9011;33.236;-97.118;2023-08-06T10:32:49;30.00;95.10
17774;DHT22;9011;33.236;-97.118;2023-08-06T10:35:36;29.90;95.30
17774;DHT22;9011;33.236;-97.118;2023-08-06T10:38:08;29.90;95.30
17774;DHT22;9011;33.236;-97.118;2023-08-06T10:40:38;29.90;95.10
17774;DHT22;9011;33.236;-97.118;2023-08-06T10:43:07;29.90;94.90
17774;DHT22;9011;33.236;-97.118;2023-08-06T10:45:37;30.00;94.70
17774;DHT22;9011;33.236;-97.118;2023-08-06T10:48:06;30.00;94.60
17774;DHT22;9011;33.236;-97.118;2023-08-06T10:50:34;30.10;94.60
17774;DHT22;9011;33.236;-97.118;2023-08-06T10:53:07;30.10;94.50
17774;DHT22;9011;33.236;-97.118;2023-08-06T10:55:38;30.10;94.50
17774;DHT22;9011;33.236;-97.118;2023-08-06T10:58:07;30.10;94.80
17774;DHT22;9011;33.236;-97.118;2023-08-06T11:00:35;30.10;94.50
17774;DHT22;9011;33.236;-97.118;2023-08-06T11:03:04;30.10;94.90
17774;DHT22;9011;33.236;-97.118;2023-08-06T11:05:32;30.20;94.80
17774;DHT22;9011;33.236;-97.118;2023-08-06T11:08:00;30.10;95.10
17774;DHT22;9011;33.236;-97.118;2023-08-06T11:10:33;30.00;95.30
17774;DHT22;9011;33.236;-97.118;2023-08-06T11:13:01;29.90;95.60
17774;DHT22;9011;33.236;-97.118;2023-08-06T11:15:30;29.80;95.70
17774;DHT22;9011;33.236;-97.118;2023-08-06T11:17:59;29.90;95.60
17774;DHT22;9011;33.236;-97.118;2023-08-06T11:20:29;29.90;95.60
17774;DHT22;9011;33.236;-97.118;2023-08-06T11:22:57;29.90;95.60
17774;DHT22;9011;33.236;-97.118;2023-08-06T11:25:25;29.90;95.60
17774;DHT22;9011;33.236;-97.118;2023-08-06T11:27:55;29.90;95.60
17774;DHT22;9011;33.236;-97.118;2023-08-06T11:30:24;29.90;95.90
17774;DHT22;9011;33.236;-97.118;2023-08-06T11:32:52;30.00;96.00
17774;DHT22;9011;33.236;-97.118;2023-08-06T11:35:21;29.90;96.10
17774;DHT22;9011;33.236;-97.118;2023-08-06T11:37:49;29.90;96.00
17774;DHT22;9011;33.236;-97.118;2023-08-06T11:40:18;29.90;95.90
17774;DHT22;9011;33.236;-97.118;2023-08-06T11:42:47;29.90;95.80
17774;DHT22;9011;33.236;-97.118;2023-08-06T11:45:21;29.90;95.80
17774;DHT22;9011;33.236;-97.118;2023-08-06T11:47:50;29.90;96.00
17774;DHT22;9011;33.236;-97.118;2023-08-06T11:50:23;29.90;96.00
17774;DHT22;9011;33.236;-97.118;2023-08-06T11:52:54;29.90;95.90
17774;DHT22;9011;33.236;-97.118;2023-08-06T11:55:24;29.90;96.00
17774;DHT22;9011;33.236;-97.118;2023-08-06T11:57:52;30.00;96.10
17774;DHT22;9011;33.236;-97.118;2023-08-06T12:00:23;30.00;95.90
17774;DHT22;9011;33.236;-97.118;2023-08-06T12:02:52;30.00;95.90
17774;DHT22;9011;33.236;-97.118;2023-08-06T12:05:22;30.00;96.10
17774;DHT22;9011;33.236;-97.118;2023-08-06T12:07:52;30.00;96.30
17774;DHT22;9011;33.236;-97.118;2023-08-06T12:10:23;30.00;96.40
17774;DHT22;9011;33.236;-97.118;2023-08-06T12:12:52;29.90;96.50
17774;DHT22;9011;33.236;-97.118;2023-08-06T12:15:23;30.00;96.20
17774;DHT22;9011;33.236;-97.118;2023-08-06T12:17:51;30.00;96.20
17774;DHT22;9011;33.236;-97.118;2023-08-06T12:20:20;29.90;96.40
17774;DHT22;9011;33.236;-97.118;2023-08-06T12:22:48;30.00;96.30
17774;DHT22;9011;33.236;-97.118;2023-08-06T12:25:16;30.00;96.60
17774;DHT22;9011;33.236;-97.118;2023-08-06T12:27:46;30.00;96.90
17774;DHT22;9011;33.236;-97.118;2023-08-06T12:30:15;29.90;97.00
17774;DHT22;9011;33.236;-97.118;2023-08-06T12:32:45;29.80;97.00
17774;DHT22;9011;33.236;-97.118;2023-08-06T12:35:13;29.80;97.30
17774;DHT22;9011;33.236;-97.118;2023-08-06T12:37:41;29.80;97.50
17774;DHT22;9011;33.236;-97.118;2023-08-06T12:40:10;29.80;97.60
17774;DHT22;9011;33.236;-97.118;2023-08-06T12:42:39;29.80;97.60
17774;DHT22;9011;33.236;-97.118;2023-08-06T12:45:08;29.80;97.60
17774;DHT22;9011;33.236;-97.118;2023-08-06T12:47:36;29.80;97.90
17774;DHT22;9011;33.236;-97.118;2023-08-06T12:50:07;29.80;98.10
17774;DHT22;9011;33.236;-97.118;2023-08-06T12:52:35;29.80;98.00
17774;DHT22;9011;33.236;-97.118;2023-08-06T12:55:04;29.70;98.10
17774;DHT22;9011;33.236;-97.118;2023-08-06T12:57:33;29.80;98.20
17774;DHT22;9011;33.236;-97.118;2023-08-06T13:00:01;29.80;98.30
17774;DHT22;9011;33.236;-97.118;2023-08-06T13:02:30;29.80;98.70
17774;DHT22;9011;33.236;-97.118;2023-08-06T13:04:58;29.80;98.50
17774;DHT22;9011;33.236;-97.118;2023-08-06T13:07:28;29.90;98.50
17774;DHT22;9011;33.236;-97.118;2023-08-06T13:09:56;29.90;98.40
17774;DHT22;9011;33.236;-97.118;2023-08-06T13:12:24;29.90;98.30
17774;DHT22;9011;33.236;-97.118;2023-08-06T13:14:53;29.90;98.40
17774;DHT22;9011;33.236;-97.118;2023-08-06T13:17:24;29.90;98.30
17774;DHT22;9011;33.236;-97.118;2023-08-06T13:19:53;29.90;98.30
17774;DHT22;9011;33.236;-97.118;2023-08-06T13:22:21;29.90;98.30
17774;DHT22;9011;33.236;-97.118;2023-08-06T13:24:51;30.00;98.40
17774;DHT22;9011;33.236;-97.118;2023-08-06T13:27:19;30.00;98.40
17774;DHT22;9011;33.236;-97.118;2023-08-06T13:29:48;30.10;98.00
17774;DHT22;9011;33.236;-97.118;2023-08-06T13:32:16;30.10;98.50
17774;DHT22;9011;33.236;-97.118;2023-08-06T13:34:44;30.10;98.60
17774;DHT22;9011;33.236;-97.118;2023-08-06T13:37:13;30.10;98.80
17774;DHT22;9011;33.236;-97.118;2023-08-06T13:39:41;30.30;98.70
17774;DHT22;9011;33.236;-97.118;2023-08-06T13:42:11;30.30;98.90
17774;DHT22;9011;33.236;-97.118;2023-08-06T13:44:39;30.40;98.50
17774;DHT22;9011;33.236;-97.118;2023-08-06T13:47:07;30.50;98.20
17774;DHT22;9011;33.236;-97.118;2023-08-06T13:49:36;30.60;97.70
17774;DHT22;9011;33.236;-97.118;2023-08-06T13:52:04;30.70;97.70
17774;DHT22;9011;33.236;-97.118;2023-08-06T13:54:33;30.80;97.50
17774;DHT22;9011;33.236;-97.118;2023-08-06T13:57:01;30.90;97.20
17774;DHT22;9011;33.236;-97.118;2023-08-06T13:59:31;31.00;97.20
17774;DHT22;9011;33.236;-97.118;2023-08-06T14:01:59;31.00;96.50
17774;DHT22;9011;33.236;-97.118;2023-08-06T14:04:27;31.20;96.50
17774;DHT22;9011;33.236;-97.118;2023-08-06T14:06:56;31.30;96.60
17774;DHT22;9011;33.236;-97.118;2023-08-06T14:09:24;31.30;95.80
17774;DHT22;9011;33.236;-97.118;2023-08-06T14:11:52;31.40;95.30
17774;DHT22;9011;33.236;-97.118;2023-08-06T14:14:21;31.50;94.90
17774;DHT22;9011;33.236;-97.118;2023-08-06T14:16:54;31.70;94.50
17774;DHT22;9011;33.236;-97.118;2023-08-06T14:19:22;31.60;94.90
17774;DHT22;9011;33.236;-97.118;2023-08-06T14:21:51;31.80;94.60
17774;DHT22;9011;33.236;-97.118;2023-08-06T14:24:19;31.80;94.60
17774;DHT22;9011;33.236;-97.118;2023-08-06T14:26:47;31.90;95.40
17774;DHT22;9011;33.236;-97.118;2023-08-06T14:29:16;31.80;95.70
17774;DHT22;9011;33.236;-97.118;2023-08-06T14:31:44;31.80;95.90
17774;DHT22;9011;33.236;-97.118;2023-08-06T14:34:14;31.70;95.90
17774;DHT22;9011;33.236;-97.118;2023-08-06T14:36:42;31.70;95.70
17774;DHT22;9011;33.236;-97.118;2023-08-06T14:39:11;31.60;95.50
17774;DHT22;9011;33.236;-97.118;2023-08-06T14:41:39;31.60;95.40
17774;DHT22;9011;33.236;-97.118;2023-08-06T14:44:07;31.70;95.50
17774;DHT22;9011;33.236;-97.118;2023-08-06T14:46:36;31.70;95.30
17774;DHT22;9011;33.236;-97.118;2023-08-06T14:49:04;31.70;95.20
17774;DHT22;9011;33.236;-97.118;2023-08-06T14:51:34;31.80;95.30
17774;DHT22;9011;33.236;-97.118;2023-08-06T14:54:02;31.80;95.10
17774;DHT22;9011;33.236;-97.118;2023-08-06T14:56:30;31.80;94.90
17774;DHT22;9011;33.236;-97.118;2023-08-06T14:58:59;31.80;95.10
17774;DHT22;9011;33.236;-97.118;2023-08-06T15:01:27;31.80;95.10
17774;DHT22;9011;33.236;-97.118;2023-08-06T15:03:55;31.90;95.40
17774;DHT22;9011;33.236;-97.118;2023-08-06T15:06:24;31.90;95.10
17774;DHT22;9011;33.236;-97.118;2023-08-06T15:08:54;32.00;94.80
17774;DHT22;9011;33.236;-97.118;2023-08-06T15:11:24;32.00;94.70
17774;DHT22;9011;33.236;-97.118;2023-08-06T15:13:53;32.00;94.30
17774;DHT22;9011;33.236;-97.118;2023-08-06T15:16:21;32.00;94.30
17774;DHT22;9011;33.236;-97.118;2023-08-06T15:18:49;32.20;94.60
17774;DHT22;9011;33.236;-97.118;2023-08-06T15:21:17;32.20;94.50
17774;DHT22;9011;33.236;-97.118;2023-08-06T15:23:46;32.40;94.00
17774;DHT22;9011;33.236;-97.118;2023-08-06T15:26:16;32.50;94.10
17774;DHT22;9011;33.236;-97.118;2023-08-06T15:28:44;32.60;94.10